sensor_id;sensor_type;location;lat;lon;timestamp;temperature;humidity
20866;DHT22;10593;48.398;10.698;2022-10-22T00:00:22;17.20;67.50
20866;DHT22;10593;48.398;10.698;2022-10-22T00:02:48;17.20;67.50
20866;DHT22;10593;48.398;10.698;2022-10-22T00:05:14;17.20;67.50
20866;DHT22;10593;48.398;10.698;2022-10-22T00:07:40;17.20;67.50
20866;DHT22;10593;48.398;10.698;2022-10-22T00:10:06;17.20;67.70
20866;DHT22;10593;48.398;10.698;2022-10-22T00:12:33;17.20;67.70
20866;DHT22;10593;48.398;10.698;2022-10-22T00:14:59;17.20;67.70
20866;DHT22;10593;48.398;10.698;2022-10-22T00:17:25;17.20;67.70
20866;DHT22;10593;48.398;10.698;2022-10-22T00:19:50;17.20;67.80
20866;DHT22;10593;48.398;10.698;2022-10-22T00:22:16;17.20;67.80
20866;DHT22;10593;48.398;10.698;2022-10-22T00:24:42;17.20;67.80
20866;DHT22;10593;48.398;10.698;2022-10-22T00:27:10;17.10;67.70
20866;DHT22;10593;48.398;10.698;2022-10-22T00:29:36;17.20;67.80
20866;DHT22;10593;48.398;10.698;2022-10-22T00:32:03;17.10;67.80
20866;DHT22;10593;48.398;10.698;2022-10-22T00:34:29;17.20;67.90
20866;DHT22;10593;48.398;10.698;2022-10-22T00:36:55;17.10;67.80
20866;DHT22;10593;48.398;10.698;2022-10-22T00:39:22;17.10;67.80
20866;DHT22;10593;48.398;10.698;2022-10-22T00:41:50;17.10;67.90
20866;DHT22;10593;48.398;10.698;2022-10-22T00:47:53;17.10;68.20
20866;DHT22;10593;48.398;10.698;2022-10-22T00:50:35;17.20;68.10
20866;DHT22;10593;48.398;10.698;2022-10-22T00:53:09;17.10;68.10
20866;DHT22;10593;48.398;10.698;2022-10-22T00:55:39;17.10;68.00
20866;DHT22;10593;48.398;10.698;2022-10-22T00:58:08;17.10;68.00
20866;DHT22;10593;48.398;10.698;2022-10-22T01:00:34;17.10;68.10
20866;DHT22;10593;48.398;10.698;2022-10-22T01:03:00;17.10;68.20
20866;DHT22;10593;48.398;10.698;2022-10-22T01:05:28;17.10;68.20
20866;DHT22;10593;48.398;10.698;2022-10-22T01:08:02;17.10;68.30
20866;DHT22;10593;48.398;10.698;2022-10-22T01:10:51;17.10;68.30
20866;DHT22;10593;48.398;10.698;2022-10-22T01:13:41;17.10;68.40
20866;DHT22;10593;48.398;10.698;2022-10-22T01:25:36;17.10;68.50
20866;DHT22;10593;48.398;10.698;2022-10-22T01:31:17;17.10;68.50
20866;DHT22;10593;48.398;10.698;2022-10-22T01:33:47;17.10;68.50
20866;DHT22;10593;48.398;10.698;2022-10-22T01:36:16;17.00;68.40
20866;DHT22;10593;48.398;10.698;2022-10-22T01:38:44;17.00;68.40
20866;DHT22;10593;48.398;10.698;2022-10-22T01:41:11;17.10;68.50
20866;DHT22;10593;48.398;10.698;2022-10-22T01:43:37;17.10;68.50
20866;DHT22;10593;48.398;10.698;2022-10-22T01:46:04;17.00;68.40
20866;DHT22;10593;48.398;10.698;2022-10-22T01:51:42;17.00;68.60
20866;DHT22;10593;48.398;10.698;2022-10-22T01:57:23;17.10;68.60
20866;DHT22;10593;48.398;10.698;2022-10-22T02:00:03;17.00;68.40
20866;DHT22;10593;48.398;10.698;2022-10-22T02:02:39;17.10;68.50
20866;DHT22;10593;48.398;10.698;2022-10-22T02:08:04;17.00;68.40
20866;DHT22;10593;48.398;10.698;2022-10-22T02:10:36;17.00;68.40
20866;DHT22;10593;48.398;10.698;2022-10-22T02:13:13;17.00;68.40
20866;DHT22;10593;48.398;10.698;2022-10-22T02:15:43;17.00;68.40
20866;DHT22;10593;48.398;10.698;2022-10-22T02:18:11;17.00;68.40
20866;DHT22;10593;48.398;10.698;2022-10-22T02:20:38;17.00;68.40
20866;DHT22;10593;48.398;10.698;2022-10-22T02:23:07;17.00;68.40
20866;DHT22;10593;48.398;10.698;2022-10-22T02:25:37;17.00;68.40
20866;DHT22;10593;48.398;10.698;2022-10-22T02:28:12;17.00;68.40
20866;DHT22;10593;48.398;10.698;2022-10-22T02:30:47;17.00;69.10
20866;DHT22;10593;48.398;10.698;2022-10-22T02:33:23;17.00;68.40
20866;DHT22;10593;48.398;10.698;2022-10-22T02:35:54;17.00;68.40
20866;DHT22;10593;48.398;10.698;2022-10-22T02:38:21;17.00;68.40
20866;DHT22;10593;48.398;10.698;2022-10-22T02:40:49;17.00;68.40
20866;DHT22;10593;48.398;10.698;2022-10-22T02:43:17;17.00;68.40
20866;DHT22;10593;48.398;10.698;2022-10-22T02:45:43;17.00;68.40
20866;DHT22;10593;48.398;10.698;2022-10-22T02:48:10;17.00;68.40
20866;DHT22;10593;48.398;10.698;2022-10-22T02:50:36;17.00;68.40
20866;DHT22;10593;48.398;10.698;2022-10-22T02:53:02;17.00;68.40
20866;DHT22;10593;48.398;10.698;2022-10-22T02:55:27;16.90;68.30
20866;DHT22;10593;48.398;10.698;2022-10-22T02:57:53;16.90;68.30
20866;DHT22;10593;48.398;10.698;2022-10-22T03:00:20;17.00;68.40
20866;DHT22;10593;48.398;10.698;2022-10-22T03:02:46;17.00;68.40
20866;DHT22;10593;48.398;10.698;2022-10-22T03:05:11;17.00;68.40
20866;DHT22;10593;48.398;10.698;2022-10-22T03:07:37;17.00;68.40
20866;DHT22;10593;48.398;10.698;2022-10-22T03:10:03;17.00;68.40
20866;DHT22;10593;48.398;10.698;2022-10-22T03:12:30;17.00;68.40
20866;DHT22;10593;48.398;10.698;2022-10-22T03:14:55;16.90;68.30
20866;DHT22;10593;48.398;10.698;2022-10-22T03:17:21;17.00;68.40
20866;DHT22;10593;48.398;10.698;2022-10-22T03:19:47;16.90;68.30
20866;DHT22;10593;48.398;10.698;2022-10-22T03:22:18;16.90;68.30
20866;DHT22;10593;48.398;10.698;2022-10-22T03:24:50;16.90;68.30
20866;DHT22;10593;48.398;10.698;2022-10-22T03:27:20;16.90;68.30
20866;DHT22;10593;48.398;10.698;2022-10-22T03:29:49;16.90;68.30
20866;DHT22;10593;48.398;10.698;2022-10-22T03:32:16;16.90;68.40
20866;DHT22;10593;48.398;10.698;2022-10-22T03:34:42;16.90;68.30
20866;DHT22;10593;48.398;10.698;2022-10-22T03:37:07;16.90;68.30
20866;DHT22;10593;48.398;10.698;2022-10-22T03:39:35;16.90;68.30
20866;DHT22;10593;48.398;10.698;2022-10-22T03:42:02;16.90;68.30
20866;DHT22;10593;48.398;10.698;2022-10-22T03:44:29;16.90;68.30
20866;DHT22;10593;48.398;10.698;2022-10-22T03:46:56;16.90;68.20
20866;DHT22;10593;48.398;10.698;2022-10-22T03:49:22;16.80;68.10
20866;DHT22;10593;48.398;10.698;2022-10-22T03:51:47;16.80;68.00
20866;DHT22;10593;48.398;10.698;2022-10-22T03:54:15;16.80;68.10
20866;DHT22;10593;48.398;10.698;2022-10-22T03:56:40;16.80;68.10
20866;DHT22;10593;48.398;10.698;2022-10-22T03:59:06;16.80;68.00
20866;DHT22;10593;48.398;10.698;2022-10-22T04:01:32;16.80;67.90
20866;DHT22;10593;48.398;10.698;2022-10-22T04:03:58;16.80;67.90
20866;DHT22;10593;48.398;10.698;2022-10-22T04:06:24;16.80;67.90
20866;DHT22;10593;48.398;10.698;2022-10-22T04:08:50;16.80;67.90
20866;DHT22;10593;48.398;10.698;2022-10-22T04:11:16;16.80;68.00
20866;DHT22;10593;48.398;10.698;2022-10-22T04:13:42;16.80;68.60
20866;DHT22;10593;48.398;10.698;2022-10-22T04:16:14;16.80;67.90
20866;DHT22;10593;48.398;10.698;2022-10-22T04:18:41;16.80;67.90
20866;DHT22;10593;48.398;10.698;2022-10-22T04:21:10;16.80;67.90
20866;DHT22;10593;48.398;10.698;2022-10-22T04:23:37;16.80;67.90
20866;DHT22;10593;48.398;10.698;2022-10-22T04:26:06;16.70;67.80
20866;DHT22;10593;48.398;10.698;2022-10-22T04:28:33;16.80;67.90
20866;DHT22;10593;48.398;10.698;2022-10-22T04:30:59;16.70;67.80
20866;DHT22;10593;48.398;10.698;2022-10-22T04:33:25;16.70;67.80
20866;DHT22;10593;48.398;10.698;2022-10-22T04:35:51;16.70;67.80
20866;DHT22;10593;48.398;10.698;2022-10-22T04:38:16;16.70;67.70
20866;DHT22;10593;48.398;10.698;2022-10-22T04:40:42;16.70;67.70
20866;DHT22;10593;48.398;10.698;2022-10-22T04:43:08;16.70;67.70
20866;DHT22;10593;48.398;10.698;2022-10-22T04:45:35;16.70;67.70
20866;DHT22;10593;48.398;10.698;2022-10-22T04:48:00;16.70;68.30
20866;DHT22;10593;48.398;10.698;2022-10-22T04:50:26;16.70;67.60
20866;DHT22;10593;48.398;10.698;2022-10-22T04:52:52;16.70;67.60
20866;DHT22;10593;48.398;10.698;2022-10-22T04:55:18;16.70;67.60
20866;DHT22;10593;48.398;10.698;2022-10-22T04:57:44;16.70;67.60
20866;DHT22;10593;48.398;10.698;2022-10-22T05:00:10;16.70;67.60
20866;DHT22;10593;48.398;10.698;2022-10-22T05:02:36;16.70;67.60
20866;DHT22;10593;48.398;10.698;2022-10-22T05:05:02;16.70;67.60
20866;DHT22;10593;48.398;10.698;2022-10-22T05:07:28;16.70;67.50
20866;DHT22;10593;48.398;10.698;2022-10-22T05:09:53;16.70;67.60
20866;DHT22;10593;48.398;10.698;2022-10-22T05:12:19;16.70;67.50
20866;DHT22;10593;48.398;10.698;2022-10-22T05:14:45;16.70;67.50
20866;DHT22;10593;48.398;10.698;2022-10-22T05:17:11;16.70;67.40
20866;DHT22;10593;48.398;10.698;2022-10-22T05:19:36;16.60;67.30
20866;DHT22;10593;48.398;10.698;2022-10-22T05:22:03;16.60;67.20
20866;DHT22;10593;48.398;10.698;2022-10-22T05:24:31;16.70;67.40
20866;DHT22;10593;48.398;10.698;2022-10-22T05:26:58;16.60;67.20
20866;DHT22;10593;48.398;10.698;2022-10-22T05:29:24;16.60;67.20
20866;DHT22;10593;48.398;10.698;2022-10-22T05:31:51;16.60;67.20
20866;DHT22;10593;48.398;10.698;2022-10-22T05:34:18;16.60;67.20
20866;DHT22;10593;48.398;10.698;2022-10-22T05:36:44;16.60;67.20
20866;DHT22;10593;48.398;10.698;2022-10-22T05:39:10;16.60;67.20
20866;DHT22;10593;48.398;10.698;2022-10-22T05:41:36;16.60;67.10
20866;DHT22;10593;48.398;10.698;2022-10-22T05:44:03;16.60;67.20
20866;DHT22;10593;48.398;10.698;2022-10-22T05:46:33;16.60;67.10
20866;DHT22;10593;48.398;10.698;2022-10-22T05:49:02;16.60;67.20
20866;DHT22;10593;48.398;10.698;2022-10-22T05:51:31;16.60;67.20
20866;DHT22;10593;48.398;10.698;2022-10-22T05:54:00;16.50;67.10
20866;DHT22;10593;48.398;10.698;2022-10-22T05:56:29;16.60;67.10
20866;DHT22;10593;48.398;10.698;2022-10-22T05:58:56;16.60;67.10
20866;DHT22;10593;48.398;10.698;2022-10-22T06:01:24;16.50;67.10
20866;DHT22;10593;48.398;10.698;2022-10-22T06:03:56;16.50;67.80
20866;DHT22;10593;48.398;10.698;2022-10-22T06:06:34;16.60;67.20
20866;DHT22;10593;48.398;10.698;2022-10-22T06:09:23;16.50;67.00
20866;DHT22;10593;48.398;10.698;2022-10-22T06:11:53;16.50;67.10
20866;DHT22;10593;48.398;10.698;2022-10-22T06:14:20;16.50;67.00
20866;DHT22;10593;48.398;10.698;2022-10-22T06:16:46;16.50;67.00
20866;DHT22;10593;48.398;10.698;2022-10-22T06:19:15;16.50;67.10
20866;DHT22;10593;48.398;10.698;2022-10-22T06:21:42;16.50;67.00
20866;DHT22;10593;48.398;10.698;2022-10-22T06:24:09;16.50;67.10
20866;DHT22;10593;48.398;10.698;2022-10-22T06:26:35;16.50;67.10
20866;DHT22;10593;48.398;10.698;2022-10-22T06:29:01;16.50;67.10
20866;DHT22;10593;48.398;10.698;2022-10-22T06:31:27;16.50;67.10
20866;DHT22;10593;48.398;10.698;2022-10-22T06:33:55;16.50;67.10
20866;DHT22;10593;48.398;10.698;2022-10-22T06:36:22;16.50;67.10
20866;DHT22;10593;48.398;10.698;2022-10-22T06:38:53;16.50;67.10
20866;DHT22;10593;48.398;10.698;2022-10-22T06:41:20;16.50;67.10
20866;DHT22;10593;48.398;10.698;2022-10-22T06:43:47;16.50;67.10
20866;DHT22;10593;48.398;10.698;2022-10-22T06:46:18;16.50;67.10
20866;DHT22;10593;48.398;10.698;2022-10-22T06:48:56;16.50;67.10
20866;DHT22;10593;48.398;10.698;2022-10-22T06:51:24;16.50;67.10
20866;DHT22;10593;48.398;10.698;2022-10-22T06:53:50;16.50;67.10
20866;DHT22;10593;48.398;10.698;2022-10-22T06:56:19;16.50;67.10
20866;DHT22;10593;48.398;10.698;2022-10-22T06:58:47;16.50;67.10
20866;DHT22;10593;48.398;10.698;2022-10-22T07:01:15;16.50;67.20
20866;DHT22;10593;48.398;10.698;2022-10-22T07:03:42;16.50;67.20
20866;DHT22;10593;48.398;10.698;2022-10-22T07:06:10;16.50;67.10
20866;DHT22;10593;48.398;10.698;2022-10-22T07:08:37;16.50;67.20
20866;DHT22;10593;48.398;10.698;2022-10-22T07:11:06;16.50;67.10
20866;DHT22;10593;48.398;10.698;2022-10-22T07:13:32;16.50;67.10
20866;DHT22;10593;48.398;10.698;2022-10-22T07:15:58;16.60;67.20
20866;DHT22;10593;48.398;10.698;2022-10-22T07:18:23;16.50;67.20
20866;DHT22;10593;48.398;10.698;2022-10-22T07:20:49;16.50;67.20
20866;DHT22;10593;48.398;10.698;2022-10-22T07:23:15;16.60;67.20
20866;DHT22;10593;48.398;10.698;2022-10-22T07:25:42;16.60;67.30
20866;DHT22;10593;48.398;10.698;2022-10-22T07:28:08;16.60;67.30
20866;DHT22;10593;48.398;10.698;2022-10-22T07:30:36;16.60;67.30
20866;DHT22;10593;48.398;10.698;2022-10-22T07:33:02;16.60;67.30
20866;DHT22;10593;48.398;10.698;2022-10-22T07:35:28;16.60;67.30
20866;DHT22;10593;48.398;10.698;2022-10-22T07:37:54;16.60;67.30
20866;DHT22;10593;48.398;10.698;2022-10-22T07:40:19;16.60;67.30
20866;DHT22;10593;48.398;10.698;2022-10-22T07:42:45;16.60;67.40
20866;DHT22;10593;48.398;10.698;2022-10-22T07:45:10;16.60;67.40
20866;DHT22;10593;48.398;10.698;2022-10-22T07:47:36;16.60;67.40
20866;DHT22;10593;48.398;10.698;2022-10-22T07:50:03;16.60;67.30
20866;DHT22;10593;48.398;10.698;2022-10-22T07:52:29;16.60;67.30
20866;DHT22;10593;48.398;10.698;2022-10-22T07:54:54;16.60;67.30
20866;DHT22;10593;48.398;10.698;2022-10-22T07:57:20;16.60;67.30
20866;DHT22;10593;48.398;10.698;2022-10-22T07:59:46;16.60;67.40
20866;DHT22;10593;48.398;10.698;2022-10-22T08:02:11;16.60;67.70
20866;DHT22;10593;48.398;10.698;2022-10-22T08:04:37;16.70;67.60
20866;DHT22;10593;48.398;10.698;2022-10-22T08:07:03;16.60;67.20
20866;DHT22;10593;48.398;10.698;2022-10-22T08:09:29;16.70;67.30
20866;DHT22;10593;48.398;10.698;2022-10-22T08:11:55;16.70;67.40
20866;DHT22;10593;48.398;10.698;2022-10-22T08:14:21;16.70;67.40
20866;DHT22;10593;48.398;10.698;2022-10-22T08:16:46;16.70;67.40
20866;DHT22;10593;48.398;10.698;2022-10-22T08:19:12;16.60;67.30
20866;DHT22;10593;48.398;10.698;2022-10-22T08:21:40;16.70;67.40
20866;DHT22;10593;48.398;10.698;2022-10-22T08:24:06;16.60;67.30
20866;DHT22;10593;48.398;10.698;2022-10-22T08:26:32;16.70;67.40
20866;DHT22;10593;48.398;10.698;2022-10-22T08:28:57;16.70;67.40
20866;DHT22;10593;48.398;10.698;2022-10-22T08:31:23;16.70;67.40
20866;DHT22;10593;48.398;10.698;2022-10-22T08:33:49;16.60;67.30
20866;DHT22;10593;48.398;10.698;2022-10-22T08:36:14;16.70;67.50
20866;DHT22;10593;48.398;10.698;2022-10-22T08:38:40;16.60;67.40
20866;DHT22;10593;48.398;10.698;2022-10-22T08:41:17;16.70;67.40
20866;DHT22;10593;48.398;10.698;2022-10-22T08:47:26;16.70;67.50
20866;DHT22;10593;48.398;10.698;2022-10-22T08:50:01;16.70;67.50
20866;DHT22;10593;48.398;10.698;2022-10-22T08:52:27;16.70;67.70
20866;DHT22;10593;48.398;10.698;2022-10-22T08:54:54;16.70;68.10
20866;DHT22;10593;48.398;10.698;2022-10-22T08:57:33;16.70;68.10
20866;DHT22;10593;48.398;10.698;2022-10-22T09:00:36;16.70;68.10
20866;DHT22;10593;48.398;10.698;2022-10-22T09:03:27;16.70;68.20
20866;DHT22;10593;48.398;10.698;2022-10-22T09:06:14;16.70;68.10
20866;DHT22;10593;48.398;10.698;2022-10-22T09:08:46;16.70;68.20
20866;DHT22;10593;48.398;10.698;2022-10-22T09:13:39;16.70;68.50
20866;DHT22;10593;48.398;10.698;2022-10-22T09:19:00;16.80;69.00
20866;DHT22;10593;48.398;10.698;2022-10-22T09:24:41;16.80;69.00
20866;DHT22;10593;48.398;10.698;2022-10-22T09:27:24;16.80;68.90
20866;DHT22;10593;48.398;10.698;2022-10-22T09:29:51;16.80;68.90
20866;DHT22;10593;48.398;10.698;2022-10-22T09:32:17;16.80;69.00
20866;DHT22;10593;48.398;10.698;2022-10-22T09:34:45;16.80;69.10
20866;DHT22;10593;48.398;10.698;2022-10-22T09:37:16;16.90;69.40
20866;DHT22;10593;48.398;10.698;2022-10-22T09:39:47;16.90;69.50
20866;DHT22;10593;48.398;10.698;2022-10-22T09:42:17;16.90;69.70
20866;DHT22;10593;48.398;10.698;2022-10-22T09:44:51;16.90;69.70
20866;DHT22;10593;48.398;10.698;2022-10-22T09:50:28;17.00;70.00
20866;DHT22;10593;48.398;10.698;2022-10-22T09:53:20;17.10;69.80
20866;DHT22;10593;48.398;10.698;2022-10-22T09:55:52;17.10;69.80
20866;DHT22;10593;48.398;10.698;2022-10-22T09:58:20;17.10;69.80
20866;DHT22;10593;48.398;10.698;2022-10-22T10:00:56;17.10;69.80
20866;DHT22;10593;48.398;10.698;2022-10-22T10:03:26;17.10;69.90
20866;DHT22;10593;48.398;10.698;2022-10-22T10:05:56;17.10;69.90
20866;DHT22;10593;48.398;10.698;2022-10-22T10:08:24;17.10;69.90
20866;DHT22;10593;48.398;10.698;2022-10-22T10:10:59;17.10;70.00
20866;DHT22;10593;48.398;10.698;2022-10-22T10:16:59;17.20;70.40
20866;DHT22;10593;48.398;10.698;2022-10-22T10:20:18;17.20;70.50
20866;DHT22;10593;48.398;10.698;2022-10-22T10:22:57;17.20;70.50
20866;DHT22;10593;48.398;10.698;2022-10-22T10:26:00;17.20;70.60
20866;DHT22;10593;48.398;10.698;2022-10-22T10:28:41;17.20;70.60
20866;DHT22;10593;48.398;10.698;2022-10-22T10:31:23;17.20;70.80
20866;DHT22;10593;48.398;10.698;2022-10-22T10:37:14;17.30;71.00
20866;DHT22;10593;48.398;10.698;2022-10-22T10:48:26;17.40;71.30
20866;DHT22;10593;48.398;10.698;2022-10-22T10:54:34;17.50;71.60
20866;DHT22;10593;48.398;10.698;2022-10-22T11:00:13;17.50;71.90
20866;DHT22;10593;48.398;10.698;2022-10-22T11:06:10;17.60;71.10
20866;DHT22;10593;48.398;10.698;2022-10-22T11:08:49;17.60;71.00
20866;DHT22;10593;48.398;10.698;2022-10-22T11:11:29;17.60;71.10
20866;DHT22;10593;48.398;10.698;2022-10-22T11:14:26;17.60;71.10
20866;DHT22;10593;48.398;10.698;2022-10-22T11:17:15;17.60;71.30
20866;DHT22;10593;48.398;10.698;2022-10-22T11:20:03;17.70;71.20
20866;DHT22;10593;48.398;10.698;2022-10-22T11:22:53;17.70;71.10
20866;DHT22;10593;48.398;10.698;2022-10-22T11:25:28;17.70;71.00
20866;DHT22;10593;48.398;10.698;2022-10-22T11:28:08;17.70;70.50
20866;DHT22;10593;48.398;10.698;2022-10-22T11:30:41;17.70;70.40
20866;DHT22;10593;48.398;10.698;2022-10-22T11:33:14;17.70;70.30
20866;DHT22;10593;48.398;10.698;2022-10-22T11:35:46;17.70;70.40
20866;DHT22;10593;48.398;10.698;2022-10-22T11:38:19;17.80;70.50
20866;DHT22;10593;48.398;10.698;2022-10-22T11:43:33;17.80;70.30
20866;DHT22;10593;48.398;10.698;2022-10-22T11:49:00;17.90;70.40
20866;DHT22;10593;48.398;10.698;2022-10-22T11:51:37;17.90;70.00
20866;DHT22;10593;48.398;10.698;2022-10-22T11:54:25;18.00;69.80
20866;DHT22;10593;48.398;10.698;2022-10-22T11:59:47;18.00;69.00
20866;DHT22;10593;48.398;10.698;2022-10-22T12:02:30;18.00;69.30
20866;DHT22;10593;48.398;10.698;2022-10-22T12:10:21;18.10;69.30
20866;DHT22;10593;48.398;10.698;2022-10-22T12:13:10;18.20;69.20
20866;DHT22;10593;48.398;10.698;2022-10-22T12:15:53;18.20;68.40
20866;DHT22;10593;48.398;10.698;2022-10-22T12:18:24;18.20;68.40
20866;DHT22;10593;48.398;10.698;2022-10-22T12:20:55;18.30;68.50
20866;DHT22;10593;48.398;10.698;2022-10-22T12:23:30;18.30;68.50
20866;DHT22;10593;48.398;10.698;2022-10-22T12:25:58;18.30;67.50
20866;DHT22;10593;48.398;10.698;2022-10-22T12:28:24;18.30;67.30
20866;DHT22;10593;48.398;10.698;2022-10-22T12:30:49;18.40;67.10
20866;DHT22;10593;48.398;10.698;2022-10-22T12:33:19;18.40;66.80
20866;DHT22;10593;48.398;10.698;2022-10-22T12:35:47;18.40;66.70
20866;DHT22;10593;48.398;10.698;2022-10-22T12:38:20;18.50;66.70
20866;DHT22;10593;48.398;10.698;2022-10-22T12:40:48;18.50;66.00
20866;DHT22;10593;48.398;10.698;2022-10-22T12:43:18;18.50;66.00
20866;DHT22;10593;48.398;10.698;2022-10-22T12:45:50;18.50;65.60
20866;DHT22;10593;48.398;10.698;2022-10-22T12:48:17;18.50;65.40
20866;DHT22;10593;48.398;10.698;2022-10-22T12:50:50;18.60;65.50
20866;DHT22;10593;48.398;10.698;2022-10-22T12:53:29;18.60;65.60
20866;DHT22;10593;48.398;10.698;2022-10-22T12:56:01;18.60;65.50
20866;DHT22;10593;48.398;10.698;2022-10-22T12:58:36;18.60;65.60
20866;DHT22;10593;48.398;10.698;2022-10-22T13:01:04;18.60;65.60
20866;DHT22;10593;48.398;10.698;2022-10-22T13:03:37;18.60;65.20
20866;DHT22;10593;48.398;10.698;2022-10-22T13:09:11;18.70;64.40
20866;DHT22;10593;48.398;10.698;2022-10-22T13:11:48;18.70;64.50
20866;DHT22;10593;48.398;10.698;2022-10-22T13:19:53;18.70;63.60
20866;DHT22;10593;48.398;10.698;2022-10-22T13:22:35;18.70;64.00
20866;DHT22;10593;48.398;10.698;2022-10-22T13:28:19;18.70;64.00
20866;DHT22;10593;48.398;10.698;2022-10-22T13:31:46;18.70;63.80
20866;DHT22;10593;48.398;10.698;2022-10-22T13:34:14;18.80;63.70
20866;DHT22;10593;48.398;10.698;2022-10-22T13:36:43;18.80;63.70
20866;DHT22;10593;48.398;10.698;2022-10-22T13:39:22;18.80;63.40
20866;DHT22;10593;48.398;10.698;2022-10-22T13:41:50;18.80;63.20
20866;DHT22;10593;48.398;10.698;2022-10-22T13:44:17;18.80;63.40
20866;DHT22;10593;48.398;10.698;2022-10-22T13:46:44;18.80;63.50
20866;DHT22;10593;48.398;10.698;2022-10-22T13:49:17;18.80;63.50
20866;DHT22;10593;48.398;10.698;2022-10-22T13:51:47;18.80;63.20
20866;DHT22;10593;48.398;10.698;2022-10-22T13:54:19;18.80;63.40
20866;DHT22;10593;48.398;10.698;2022-10-22T13:56:47;18.80;63.30
20866;DHT22;10593;48.398;10.698;2022-10-22T13:59:12;18.80;63.20
20866;DHT22;10593;48.398;10.698;2022-10-22T14:01:38;18.80;63.00
20866;DHT22;10593;48.398;10.698;2022-10-22T14:04:06;18.90;62.90
20866;DHT22;10593;48.398;10.698;2022-10-22T14:06:36;18.90;62.40
20866;DHT22;10593;48.398;10.698;2022-10-22T14:09:06;18.90;63.10
20866;DHT22;10593;48.398;10.698;2022-10-22T14:11:37;18.90;62.40
20866;DHT22;10593;48.398;10.698;2022-10-22T14:14:03;18.90;62.40
20866;DHT22;10593;48.398;10.698;2022-10-22T14:16:33;18.90;62.30
20866;DHT22;10593;48.398;10.698;2022-10-22T14:19:00;19.00;62.30
20866;DHT22;10593;48.398;10.698;2022-10-22T14:21:29;19.00;61.60
20866;DHT22;10593;48.398;10.698;2022-10-22T14:23:59;19.00;61.00
20866;DHT22;10593;48.398;10.698;2022-10-22T14:26:27;19.00;60.60
20866;DHT22;10593;48.398;10.698;2022-10-22T14:28:58;19.10;61.00
20866;DHT22;10593;48.398;10.698;2022-10-22T14:31:25;19.10;61.00
20866;DHT22;10593;48.398;10.698;2022-10-22T14:33:51;19.10;60.90
20866;DHT22;10593;48.398;10.698;2022-10-22T14:36:17;19.10;61.00
20866;DHT22;10593;48.398;10.698;2022-10-22T14:38:46;19.20;60.90
20866;DHT22;10593;48.398;10.698;2022-10-22T14:41:23;19.20;60.90
20866;DHT22;10593;48.398;10.698;2022-10-22T14:43:51;19.20;60.70
20866;DHT22;10593;48.398;10.698;2022-10-22T14:46:17;19.20;60.80
20866;DHT22;10593;48.398;10.698;2022-10-22T14:48:44;19.30;60.90
20866;DHT22;10593;48.398;10.698;2022-10-22T14:51:12;19.20;60.60
20866;DHT22;10593;48.398;10.698;2022-10-22T14:53:40;19.30;60.50
20866;DHT22;10593;48.398;10.698;2022-10-22T14:56:06;19.30;60.50
20866;DHT22;10593;48.398;10.698;2022-10-22T14:58:35;19.30;60.50
20866;DHT22;10593;48.398;10.698;2022-10-22T15:01:02;19.30;60.30
20866;DHT22;10593;48.398;10.698;2022-10-22T15:03:28;19.40;60.30
20866;DHT22;10593;48.398;10.698;2022-10-22T15:05:54;19.40;59.90
20866;DHT22;10593;48.398;10.698;2022-10-22T15:08:21;19.40;59.50
20866;DHT22;10593;48.398;10.698;2022-10-22T15:11:15;19.30;59.50
20866;DHT22;10593;48.398;10.698;2022-10-22T15:13:41;19.40;59.60
20866;DHT22;10593;48.398;10.698;2022-10-22T15:16:09;19.40;59.90
20866;DHT22;10593;48.398;10.698;2022-10-22T15:18:35;19.40;60.00
20866;DHT22;10593;48.398;10.698;2022-10-22T15:21:05;19.40;60.10
20866;DHT22;10593;48.398;10.698;2022-10-22T15:23:33;19.40;59.70
20866;DHT22;10593;48.398;10.698;2022-10-22T15:26:00;19.40;59.90
20866;DHT22;10593;48.398;10.698;2022-10-22T15:28:26;19.40;59.90
20866;DHT22;10593;48.398;10.698;2022-10-22T15:30:57;19.40;59.90
20866;DHT22;10593;48.398;10.698;2022-10-22T15:33:24;19.40;59.80
20866;DHT22;10593;48.398;10.698;2022-10-22T15:35:50;19.40;59.80
20866;DHT22;10593;48.398;10.698;2022-10-22T15:38:16;19.40;59.80
20866;DHT22;10593;48.398;10.698;2022-10-22T15:40:43;19.50;59.90
20866;DHT22;10593;48.398;10.698;2022-10-22T15:43:08;19.40;59.70
20866;DHT22;10593;48.398;10.698;2022-10-22T15:45:34;19.40;59.80
20866;DHT22;10593;48.398;10.698;2022-10-22T15:48:00;19.40;59.90
20866;DHT22;10593;48.398;10.698;2022-10-22T15:50:26;19.40;59.90
20866;DHT22;10593;48.398;10.698;2022-10-22T15:52:51;19.40;60.20
20866;DHT22;10593;48.398;10.698;2022-10-22T15:55:18;19.40;60.30
20866;DHT22;10593;48.398;10.698;2022-10-22T15:57:44;19.40;60.30
20866;DHT22;10593;48.398;10.698;2022-10-22T16:00:10;19.40;60.60
20866;DHT22;10593;48.398;10.698;2022-10-22T16:02:36;19.30;60.70
20866;DHT22;10593;48.398;10.698;2022-10-22T16:05:02;19.40;61.00
20866;DHT22;10593;48.398;10.698;2022-10-22T16:07:29;19.30;61.00
20866;DHT22;10593;48.398;10.698;2022-10-22T16:09:58;19.30;61.20
20866;DHT22;10593;48.398;10.698;2022-10-22T16:12:25;19.30;61.30
20866;DHT22;10593;48.398;10.698;2022-10-22T16:14:50;19.30;61.50
20866;DHT22;10593;48.398;10.698;2022-10-22T16:17:17;19.20;61.50
20866;DHT22;10593;48.398;10.698;2022-10-22T16:19:42;19.20;61.60
20866;DHT22;10593;48.398;10.698;2022-10-22T16:22:09;19.20;61.70
20866;DHT22;10593;48.398;10.698;2022-10-22T16:24:36;19.10;61.60
20866;DHT22;10593;48.398;10.698;2022-10-22T16:27:06;19.10;61.60
20866;DHT22;10593;48.398;10.698;2022-10-22T16:29:32;19.10;61.60
20866;DHT22;10593;48.398;10.698;2022-10-22T16:31:58;19.00;61.60
20866;DHT22;10593;48.398;10.698;2022-10-22T16:34:27;19.00;61.60
20866;DHT22;10593;48.398;10.698;2022-10-22T16:36:53;19.00;61.50
20866;DHT22;10593;48.398;10.698;2022-10-22T16:39:21;18.90;61.50
20866;DHT22;10593;48.398;10.698;2022-10-22T16:41:47;18.90;61.40
20866;DHT22;10593;48.398;10.698;2022-10-22T16:44:13;18.90;61.30
20866;DHT22;10593;48.398;10.698;2022-10-22T16:46:39;18.90;61.30
20866;DHT22;10593;48.398;10.698;2022-10-22T16:49:05;18.80;61.10
20866;DHT22;10593;48.398;10.698;2022-10-22T16:51:32;18.80;61.20
20866;DHT22;10593;48.398;10.698;2022-10-22T16:53:58;18.80;61.20
20866;DHT22;10593;48.398;10.698;2022-10-22T16:56:24;18.70;61.10
20866;DHT22;10593;48.398;10.698;2022-10-22T16:58:55;18.70;61.10
20866;DHT22;10593;48.398;10.698;2022-10-22T17:01:24;18.70;61.20